This is the latest recevied weather packets stored in our database for station/object OH2HCY. If no packets are shown the sender has not sent any weather packets the latest 10 day(s).
| Time | Temp. | Humidity | Pressure | Rain* | Wind** | Luminosity | Snow |
|---|---|---|---|---|---|---|---|
| 1777546980 | 12.78° C | 56% | 1016.7 hPa | - | - | - | - |
| 1777546440 | 12.22° C | 57% | 1016.9 hPa | - | - | - | - |
| 1777545900 | 12.22° C | 57% | 1016.9 hPa | - | - | - | - |
| 1777545358 | 11.67° C | 58% | 1017 hPa | - | - | - | - |
| 1777544788 | 11.67° C | 58% | 1017 hPa | - | - | - | - |
| 1777544240 | 11.67° C | 59% | 1017.2 hPa | - | - | - | - |
| 1777542599 | 10.56° C | 62% | 1017.8 hPa | - | - | - | - |
| 1777542055 | 10° C | 63% | 1017.8 hPa | - | - | - | - |
| 1777541508 | 10° C | 65% | 1018.1 hPa | - | - | - | - |
| 1777540938 | 9.44° C | 66% | 1018.3 hPa | - | - | - | - |
| 1777540400 | 8.89° C | 68% | 1018.5 hPa | - | - | - | - |
| 1777539900 | 9.44° C | 69% | 1018.6 hPa | - | - | - | - |
| 1777539335 | 8.33° C | 71% | 1018.9 hPa | - | - | - | - |
| 1777538820 | 8.33° C | 73% | 1019 hPa | - | - | - | - |
| 1777537788 | 7.78° C | 75% | 1019.4 hPa | - | - | - | - |
| 1777537208 | 7.22° C | 75% | 1019.7 hPa | - | - | - | - |
| 1777536685 | 7.22° C | 77% | 1019.9 hPa | - | - | - | - |
| 1777536148 | 6.67° C | 77% | 1020 hPa | - | - | - | - |
| 1777535085 | 6.67° C | 73% | 1019.9 hPa | - | - | - | - |
| 1777534555 | 6.67° C | 74% | 1020 hPa | - | - | - | - |
| 1777534035 | 6.11° C | 73% | 1020.2 hPa | - | - | - | - |
| 1777533480 | 6.11° C | 73% | 1020.3 hPa | - | - | - | - |
| 1777532900 | 5.56° C | 70% | 1020.4 hPa | - | - | - | - |
| 1777532375 | 5.56° C | 70% | 1020.4 hPa | - | - | - | - |
| 1777530794 | 5° C | 69% | 1020.5 hPa | - | - | - | - |
* Rain since midnight (hover to see other rain measurements)
** Current wind speed in m/s (hover to see current wind gust speed)